< < Back
Terminal Aerodrome Forecast


Current Version              Previous Versions:   1  2  3  4  5  6  7  8  9  

Terminal Aerodrome Forecast

292
FTUS42 KILM 181327 AAA
TAFILM
TAF AMD
KILM 181327Z 1813/1912 00000KT 4SM RA BR BKN005
     FM181500 05005KT 5SM -SHRA BR BKN020
     FM181600 09005KT P6SM VCSH SCT015 BKN040
     FM190200 05003KT P6SM BKN080=

Latest METAR

806
SAUS70 KWBC 181300 RRF
MTRILM
METAR KILM 181253Z 01007KT 8SM -RA SCT005 OVC013 19/18 A3000 RMK AO2
RAB49 SLP157 P0000 T01940183


USA.gov is the U.S. government's official web portal to all federal, state and local government web resources and services.